createdAt,value
2023-05-14T00:01:20.268Z,21.40
2023-05-14T00:03:47.036Z,21.40
2023-05-14T00:06:14.722Z,21.40
2023-05-14T00:08:41.467Z,21.40
2023-05-14T00:11:09.049Z,21.40
2023-05-14T00:13:36.356Z,21.30
2023-05-14T00:16:03.628Z,21.30
2023-05-14T00:18:30.453Z,21.30
2023-05-14T00:20:57.148Z,21.30
2023-05-14T00:23:24.576Z,21.30
2023-05-14T00:25:51.423Z,21.30
2023-05-14T00:28:18.163Z,21.30
2023-05-14T00:30:45.032Z,21.30
2023-05-14T00:33:12.078Z,21.30
2023-05-14T00:35:38.968Z,21.20
2023-05-14T00:38:06.073Z,21.30
2023-05-14T00:40:32.940Z,21.20
2023-05-14T00:43:00.362Z,21.30
2023-05-14T00:45:27.683Z,21.20
2023-05-14T00:47:55.076Z,21.20
2023-05-14T00:50:22.764Z,21.20
2023-05-14T00:52:49.734Z,21.20
2023-05-14T00:55:16.834Z,21.20
2023-05-14T00:57:44.189Z,21.20
2023-05-14T01:00:11.659Z,21.20
2023-05-14T01:02:38.610Z,21.20
2023-05-14T01:05:06.118Z,21.20
2023-05-14T01:07:51.553Z,21.10
2023-05-14T01:10:47.236Z,21.10
2023-05-14T01:13:24.700Z,21.10
2023-05-14T01:15:52.514Z,21.10
2023-05-14T01:18:19.716Z,21.10
2023-05-14T01:20:49.615Z,21.10
2023-05-14T01:23:16.412Z,21.10
2023-05-14T01:25:43.642Z,21.00
2023-05-14T01:28:20.869Z,21.10
2023-05-14T01:31:00.151Z,21.00
2023-05-14T01:33:29.646Z,21.00
2023-05-14T01:35:56.766Z,21.00
2023-05-14T01:38:24.245Z,21.00
2023-05-14T01:40:52.019Z,21.00
2023-05-14T01:43:19.532Z,21.00
2023-05-14T01:45:46.679Z,21.00
2023-05-14T01:48:13.595Z,20.90
2023-05-14T01:50:40.374Z,20.90
2023-05-14T01:53:07.197Z,20.90
2023-05-14T01:55:34.024Z,20.90
2023-05-14T01:58:00.906Z,20.90
2023-05-14T02:00:27.712Z,20.90
2023-05-14T02:02:54.491Z,20.90
2023-05-14T02:05:23.404Z,20.90
2023-05-14T02:07:50.174Z,20.90
2023-05-14T02:10:17.682Z,20.90
2023-05-14T02:12:49.083Z,20.90
2023-05-14T02:15:16.763Z,20.80
2023-05-14T02:17:43.691Z,20.80
2023-05-14T02:20:11.577Z,20.80
2023-05-14T02:22:38.363Z,20.80
2023-05-14T02:25:05.643Z,20.80
2023-05-14T02:27:32.376Z,20.80
2023-05-14T02:30:00.856Z,20.80
2023-05-14T02:32:28.428Z,20.80
2023-05-14T02:34:55.415Z,20.80
2023-05-14T02:37:22.202Z,20.70
2023-05-14T02:39:49.446Z,20.70
2023-05-14T02:42:16.139Z,20.70
2023-05-14T02:44:42.834Z,20.70
2023-05-14T02:47:10.882Z,20.70
2023-05-14T02:49:37.694Z,20.70
2023-05-14T02:52:04.718Z,20.70
2023-05-14T02:54:31.456Z,20.70
2023-05-14T02:56:58.246Z,20.70
2023-05-14T02:59:25.067Z,20.70
2023-05-14T03:01:52.767Z,20.70
2023-05-14T03:04:20.432Z,20.60
2023-05-14T03:06:47.073Z,20.60
2023-05-14T03:09:14.338Z,20.60
2023-05-14T03:11:41.241Z,20.60
2023-05-14T03:14:08.001Z,20.60
2023-05-14T03:16:34.883Z,20.60
2023-05-14T03:19:01.630Z,20.60
2023-05-14T03:21:28.409Z,20.60
2023-05-14T03:23:55.186Z,20.60
2023-05-14T03:26:22.015Z,20.50
2023-05-14T03:28:51.788Z,20.60
2023-05-14T03:31:18.848Z,20.50
2023-05-14T03:33:45.732Z,20.50
2023-05-14T03:36:12.477Z,20.50
2023-05-14T03:38:39.974Z,20.50
2023-05-14T03:41:06.706Z,20.50
2023-05-14T03:43:33.481Z,20.50
2023-05-14T03:46:00.194Z,20.50
2023-05-14T03:48:27.360Z,20.50
2023-05-14T03:50:54.273Z,20.50
2023-05-14T03:53:21.007Z,20.40
2023-05-14T03:55:47.821Z,20.50
2023-05-14T03:58:14.719Z,20.40
2023-05-14T04:00:44.814Z,20.40
2023-05-14T04:03:11.970Z,20.40
2023-05-14T04:05:38.835Z,20.40
2023-05-14T04:08:06.133Z,20.40
2023-05-14T04:10:32.848Z,20.40
2023-05-14T04:13:00.440Z,20.40
2023-05-14T04:15:31.618Z,20.40
2023-05-14T04:17:58.471Z,20.40
2023-05-14T04:20:25.810Z,20.40
2023-05-14T04:22:53.587Z,20.40
2023-05-14T04:25:20.663Z,20.30
2023-05-14T04:27:47.494Z,20.40
2023-05-14T04:30:14.283Z,20.40
2023-05-14T04:32:41.179Z,20.30
2023-05-14T04:35:10.147Z,20.30
2023-05-14T04:37:37.103Z,20.30
2023-05-14T04:40:05.101Z,20.30
2023-05-14T04:42:31.925Z,20.30
2023-05-14T04:44:58.674Z,20.30
2023-05-14T04:47:26.558Z,20.30
2023-05-14T04:49:53.372Z,20.30
2023-05-14T04:52:20.134Z,20.30
2023-05-14T04:54:46.950Z,20.30
2023-05-14T04:57:13.706Z,20.30
2023-05-14T04:59:40.606Z,20.30
2023-05-14T05:02:07.362Z,20.30
2023-05-14T05:04:34.113Z,20.30
2023-05-14T05:07:00.932Z,20.30
2023-05-14T05:09:27.646Z,20.20
2023-05-14T05:11:54.328Z,20.30
2023-05-14T05:14:21.205Z,20.20
2023-05-14T05:16:47.954Z,20.20
2023-05-14T05:19:14.741Z,20.20
2023-05-14T05:21:41.510Z,20.20
2023-05-14T05:24:08.592Z,20.20
2023-05-14T05:26:38.458Z,20.20
2023-05-14T05:29:05.557Z,20.20
2023-05-14T05:31:32.585Z,20.20
2023-05-14T05:34:00.050Z,20.20
2023-05-14T05:36:27.253Z,20.20
2023-05-14T05:39:18.969Z,20.20
2023-05-14T05:41:45.681Z,20.20
2023-05-14T05:44:12.414Z,20.20
2023-05-14T05:46:39.211Z,20.20
2023-05-14T05:49:06.055Z,20.20
2023-05-14T05:51:33.183Z,20.10
2023-05-14T05:54:00.065Z,20.10
2023-05-14T05:56:26.776Z,20.10
2023-05-14T05:58:53.438Z,20.10
2023-05-14T06:01:20.568Z,20.10
2023-05-14T06:03:48.719Z,20.10
2023-05-14T06:06:15.654Z,20.10
2023-05-14T06:08:42.467Z,20.10
2023-05-14T06:11:09.470Z,20.10
2023-05-14T06:13:36.467Z,20.10
2023-05-14T06:16:03.378Z,20.10
2023-05-14T06:18:30.272Z,20.10
2023-05-14T06:20:57.930Z,20.10
2023-05-14T06:23:24.700Z,20.10
2023-05-14T06:25:51.647Z,20.10
2023-05-14T06:28:18.384Z,20.10
2023-05-14T06:30:45.170Z,20.10
2023-05-14T06:33:13.497Z,20.00
2023-05-14T06:35:40.367Z,20.10
2023-05-14T06:38:07.106Z,20.10
2023-05-14T06:40:37.085Z,20.10
2023-05-14T06:43:06.299Z,20.00
2023-05-14T06:45:33.339Z,20.10
2023-05-14T06:48:00.333Z,20.10
2023-05-14T06:50:27.436Z,20.10
2023-05-14T06:52:54.164Z,20.10
2023-05-14T06:55:20.953Z,20.10
2023-05-14T06:57:47.634Z,20.10
2023-05-14T07:00:15.566Z,20.10
2023-05-14T07:02:42.319Z,20.10
2023-05-14T07:05:09.464Z,20.10
2023-05-14T07:07:36.236Z,20.10
2023-05-14T07:10:03.230Z,20.10
2023-05-14T07:12:29.932Z,20.10
2023-05-14T07:14:57.580Z,20.10
2023-05-14T07:17:24.637Z,20.10
2023-05-14T07:19:51.516Z,20.10
2023-05-14T07:22:18.223Z,20.10
2023-05-14T07:24:45.001Z,20.10
2023-05-14T07:27:12.421Z,20.10
2023-05-14T07:29:39.160Z,20.10
2023-05-14T07:32:05.876Z,20.10
2023-05-14T07:34:32.697Z,20.10
2023-05-14T07:36:59.561Z,20.10
2023-05-14T07:39:26.447Z,20.10
2023-05-14T07:41:54.844Z,20.10
2023-05-14T07:44:21.662Z,20.10
2023-05-14T07:46:48.493Z,20.10
2023-05-14T07:49:15.285Z,20.10
2023-05-14T07:51:41.968Z,20.10
2023-05-14T07:54:08.915Z,20.10
2023-05-14T07:56:35.684Z,20.10
2023-05-14T07:59:02.348Z,20.20
2023-05-14T08:01:29.090Z,20.20
2023-05-14T08:03:55.905Z,20.20
2023-05-14T08:06:23.640Z,20.20
2023-05-14T08:08:50.346Z,20.20
2023-05-14T08:11:17.116Z,20.20
2023-05-14T08:13:43.857Z,20.20
2023-05-14T08:16:10.576Z,20.20
2023-05-14T08:18:37.381Z,20.20
2023-05-14T08:21:04.306Z,20.20
2023-05-14T08:23:31.072Z,20.20
2023-05-14T08:25:57.852Z,20.20
2023-05-14T08:28:24.795Z,20.20
2023-05-14T08:30:51.524Z,20.20
2023-05-14T08:33:18.340Z,20.20
2023-05-14T08:35:45.125Z,20.20
2023-05-14T08:38:11.902Z,20.20
2023-05-14T08:40:38.708Z,20.20
2023-05-14T08:43:06.300Z,20.20
2023-05-14T08:45:34.457Z,20.20
2023-05-14T08:48:05.077Z,20.20
2023-05-14T08:50:32.283Z,20.20
2023-05-14T08:52:59.236Z,20.30
2023-05-14T08:55:28.365Z,20.30
2023-05-14T08:57:56.092Z,20.30
2023-05-14T09:00:23.296Z,20.30
2023-05-14T09:02:51.411Z,20.30
2023-05-14T09:05:19.622Z,20.30
2023-05-14T09:07:46.787Z,20.30
2023-05-14T09:10:15.362Z,20.30
2023-05-14T09:12:42.099Z,20.30
2023-05-14T09:15:09.241Z,20.30
2023-05-14T09:18:01.142Z,20.30
2023-05-14T09:20:28.537Z,20.30
2023-05-14T09:22:56.657Z,20.30
2023-05-14T09:25:28.155Z,20.30
2023-05-14T09:27:57.330Z,20.30
2023-05-14T09:30:26.861Z,20.30
2023-05-14T09:32:54.892Z,20.40
2023-05-14T09:35:23.829Z,20.30
2023-05-14T09:37:53.567Z,20.30
2023-05-14T09:40:22.269Z,20.30
2023-05-14T09:42:49.769Z,20.40
2023-05-14T09:45:17.236Z,20.40
2023-05-14T09:47:45.119Z,20.40
2023-05-14T09:50:12.400Z,20.40
2023-05-14T09:52:39.419Z,20.40
2023-05-14T09:55:06.919Z,20.40
2023-05-14T09:57:34.548Z,20.50
2023-05-14T10:00:01.414Z,20.50
2023-05-14T10:02:41.364Z,20.50
2023-05-14T10:05:09.732Z,20.50
2023-05-14T10:07:44.406Z,20.50
2023-05-14T10:10:19.865Z,20.50
2023-05-14T10:12:58.245Z,20.50
2023-05-14T10:15:33.608Z,20.50
2023-05-14T10:18:07.993Z,20.60
2023-05-14T10:20:36.633Z,20.60
2023-05-14T10:23:03.586Z,20.60
2023-05-14T10:25:30.515Z,20.60
2023-05-14T10:27:57.805Z,20.60
2023-05-14T10:30:24.756Z,20.60
2023-05-14T10:33:07.012Z,20.60
2023-05-14T10:36:01.147Z,20.60
2023-05-14T10:38:33.663Z,20.60
2023-05-14T10:41:05.957Z,20.60
2023-05-14T10:43:38.395Z,20.70
2023-05-14T10:46:05.598Z,20.70
2023-05-14T10:48:33.225Z,20.70
2023-05-14T10:51:01.700Z,20.70
2023-05-14T10:53:41.212Z,20.70
2023-05-14T10:56:12.855Z,20.70
2023-05-14T10:58:43.926Z,20.70
2023-05-14T11:01:12.685Z,20.70
2023-05-14T11:03:44.863Z,20.70
2023-05-14T11:06:13.865Z,20.70
2023-05-14T11:08:41.467Z,20.70
2023-05-14T11:11:09.259Z,20.70
2023-05-14T11:13:36.141Z,20.70
2023-05-14T11:16:15.200Z,20.80
2023-05-14T11:18:48.245Z,20.70
2023-05-14T11:21:17.289Z,20.80
2023-05-14T11:23:46.640Z,20.80
2023-05-14T11:26:13.491Z,20.80
2023-05-14T11:28:40.451Z,20.80
2023-05-14T11:31:07.212Z,20.70
2023-05-14T11:33:33.972Z,20.80
2023-05-14T11:36:00.738Z,20.80
2023-05-14T11:38:27.483Z,20.80
2023-05-14T11:40:58.495Z,20.80
2023-05-14T11:43:28.363Z,20.80
2023-05-14T11:45:55.764Z,20.80
2023-05-14T11:48:24.890Z,20.80
2023-05-14T11:50:52.811Z,20.80
2023-05-14T11:53:24.530Z,20.80
2023-05-14T11:55:52.406Z,20.80
2023-05-14T11:58:19.374Z,20.80
2023-05-14T12:00:47.412Z,20.80
2023-05-14T12:03:14.448Z,20.80
2023-05-14T12:05:41.449Z,20.80
2023-05-14T12:08:29.989Z,20.80
2023-05-14T12:10:58.979Z,20.80
2023-05-14T12:13:30.750Z,20.80
2023-05-14T12:16:00.303Z,20.80
2023-05-14T12:18:32.322Z,20.80
2023-05-14T12:21:03.726Z,20.80
2023-05-14T12:23:32.166Z,20.80
2023-05-14T12:26:04.104Z,20.90
2023-05-14T12:28:31.053Z,20.80
2023-05-14T12:30:59.144Z,20.90
2023-05-14T12:33:28.916Z,20.90
2023-05-14T12:36:07.344Z,20.90
2023-05-14T12:38:37.678Z,20.90
2023-05-14T12:41:04.458Z,20.90
2023-05-14T12:43:32.138Z,20.90
2023-05-14T12:45:58.953Z,20.80
2023-05-14T12:48:26.104Z,20.90
2023-05-14T12:50:52.830Z,20.90
2023-05-14T12:53:19.616Z,20.90
2023-05-14T12:55:46.369Z,20.90
2023-05-14T12:58:13.103Z,20.90
2023-05-14T13:00:39.791Z,20.90
2023-05-14T13:03:06.674Z,20.90
2023-05-14T13:05:33.586Z,20.90
2023-05-14T13:08:03.669Z,20.90
2023-05-14T13:10:30.526Z,20.90
2023-05-14T13:12:58.037Z,20.90
2023-05-14T13:15:24.963Z,20.90
2023-05-14T13:17:51.845Z,21.00
2023-05-14T13:20:18.800Z,20.90
2023-05-14T13:22:48.456Z,21.00
2023-05-14T13:25:15.296Z,21.00
2023-05-14T13:27:41.940Z,21.00
2023-05-14T13:30:09.259Z,21.00
2023-05-14T13:32:36.011Z,21.00
2023-05-14T13:35:02.748Z,21.00
2023-05-14T13:37:29.457Z,21.00
2023-05-14T13:39:56.205Z,21.00
2023-05-14T13:42:23.572Z,21.00
2023-05-14T13:44:50.692Z,21.00
2023-05-14T13:47:17.462Z,21.00
2023-05-14T13:49:44.177Z,21.00
2023-05-14T13:52:10.881Z,21.00
2023-05-14T13:54:37.608Z,21.00
2023-05-14T13:57:04.653Z,21.00
2023-05-14T13:59:31.457Z,21.00
2023-05-14T14:01:58.340Z,21.10
2023-05-14T14:04:28.937Z,21.10
2023-05-14T14:06:55.866Z,21.10
2023-05-14T14:09:22.807Z,21.10
2023-05-14T14:11:49.927Z,21.10
2023-05-14T14:14:17.314Z,21.10
2023-05-14T14:16:44.504Z,21.10
2023-05-14T14:19:11.371Z,21.10
2023-05-14T14:21:39.725Z,21.10
2023-05-14T14:24:06.670Z,21.10
2023-05-14T14:26:33.413Z,21.10
2023-05-14T14:29:00.234Z,21.10
2023-05-14T14:31:26.936Z,21.10
2023-05-14T14:33:53.612Z,21.10
2023-05-14T14:36:20.382Z,21.10
2023-05-14T14:38:47.089Z,21.10
2023-05-14T14:41:13.859Z,21.20
2023-05-14T14:43:41.076Z,21.20
2023-05-14T14:46:09.193Z,21.20
2023-05-14T14:48:37.601Z,21.20
2023-05-14T14:51:06.255Z,21.20
2023-05-14T14:53:34.468Z,21.20
2023-05-14T14:56:18.319Z,21.20
2023-05-14T14:58:45.529Z,21.20
2023-05-14T15:01:12.244Z,21.20
2023-05-14T15:03:39.070Z,21.20
2023-05-14T15:06:06.107Z,21.20
2023-05-14T15:08:32.885Z,21.20
2023-05-14T15:10:59.609Z,21.30
2023-05-14T15:13:26.972Z,21.20
2023-05-14T15:15:53.831Z,21.30
2023-05-14T15:18:21.185Z,21.20
2023-05-14T15:20:48.152Z,21.30
2023-05-14T15:23:14.934Z,21.30
2023-05-14T15:25:41.675Z,21.30
2023-05-14T15:28:08.464Z,21.30
2023-05-14T15:30:35.383Z,21.30
2023-05-14T15:33:02.143Z,21.30
2023-05-14T15:35:29.037Z,21.30
2023-05-14T15:37:57.242Z,21.30
2023-05-14T15:40:24.303Z,21.30
2023-05-14T15:42:51.307Z,21.40
2023-05-14T15:45:18.059Z,21.30
2023-05-14T15:47:47.565Z,21.30
2023-05-14T15:50:14.328Z,21.40
2023-05-14T15:52:41.563Z,21.40
2023-05-14T15:55:08.948Z,21.40
2023-05-14T15:58:06.983Z,21.40
2023-05-14T16:00:33.680Z,21.40
2023-05-14T16:03:00.529Z,21.40
2023-05-14T16:05:27.382Z,21.40
2023-05-14T16:07:54.254Z,21.50
2023-05-14T16:10:21.460Z,21.50
2023-05-14T16:12:48.424Z,21.50
2023-05-14T16:15:15.317Z,21.50
2023-05-14T16:17:42.114Z,21.50
2023-05-14T16:20:09.635Z,21.50
2023-05-14T16:22:36.521Z,21.50
2023-05-14T16:25:04.827Z,21.50
2023-05-14T16:27:31.713Z,21.60
2023-05-14T16:32:58.848Z,21.60
2023-05-14T16:35:25.654Z,21.60
2023-05-14T16:37:52.452Z,21.60
2023-05-14T16:40:19.665Z,21.60
2023-05-14T16:42:49.036Z,21.60
2023-05-14T16:45:16.083Z,21.60
2023-05-14T16:47:42.837Z,21.60
2023-05-14T16:50:09.991Z,21.60
2023-05-14T16:52:36.841Z,21.70
2023-05-14T16:55:03.722Z,21.70
2023-05-14T16:57:30.531Z,21.70
2023-05-14T16:59:57.183Z,21.70
2023-05-14T17:02:23.878Z,21.70
2023-05-14T17:04:50.716Z,21.70
2023-05-14T17:07:17.589Z,21.70
2023-05-14T17:09:44.264Z,21.70
2023-05-14T17:12:13.027Z,21.70
2023-05-14T17:14:39.800Z,21.70
2023-05-14T17:17:06.569Z,21.80
2023-05-14T17:19:33.306Z,21.70
2023-05-14T17:22:01.079Z,21.70
2023-05-14T17:24:27.763Z,21.80
2023-05-14T17:26:54.446Z,21.70
2023-05-14T17:29:21.217Z,21.80
2023-05-14T17:31:48.587Z,21.70
2023-05-14T17:34:16.159Z,21.70
2023-05-14T17:36:42.954Z,21.80
2023-05-14T17:39:09.761Z,21.70
2023-05-14T17:41:36.431Z,21.70
2023-05-14T17:44:03.135Z,21.70
2023-05-14T17:46:30.422Z,21.70
2023-05-14T17:48:58.276Z,21.70
2023-05-14T17:51:25.165Z,21.80
2023-05-14T17:53:51.940Z,21.80
2023-05-14T17:56:19.530Z,21.70
2023-05-14T17:58:46.488Z,21.70
2023-05-14T18:01:13.242Z,21.70
2023-05-14T18:03:40.116Z,21.70
2023-05-14T18:06:06.965Z,21.70
2023-05-14T18:08:33.641Z,21.70
2023-05-14T18:11:00.786Z,21.70
2023-05-14T18:13:27.650Z,21.70
2023-05-14T18:15:56.454Z,21.70
2023-05-14T18:18:23.954Z,21.70
2023-05-14T18:20:51.855Z,21.70
2023-05-14T18:23:18.825Z,21.70
2023-05-14T18:25:45.732Z,21.70
2023-05-14T18:28:12.841Z,21.70
2023-05-14T18:30:39.770Z,21.70
2023-05-14T18:33:06.777Z,21.70
2023-05-14T18:35:35.107Z,21.70
2023-05-14T18:38:02.713Z,21.70
2023-05-14T18:40:29.560Z,21.70
2023-05-14T18:42:56.679Z,21.70
2023-05-14T18:45:24.426Z,21.70
2023-05-14T18:47:51.807Z,21.60
2023-05-14T18:50:18.954Z,21.70
2023-05-14T18:52:45.690Z,21.60
2023-05-14T18:55:12.483Z,21.60
2023-05-14T18:57:39.249Z,21.60
2023-05-14T19:00:06.975Z,21.60
2023-05-14T19:02:33.792Z,21.60
2023-05-14T19:08:00.966Z,21.60
2023-05-14T19:10:27.829Z,21.50
2023-05-14T19:12:54.643Z,21.60
2023-05-14T19:15:21.640Z,21.50
2023-05-14T19:17:49.130Z,21.60
2023-05-14T19:20:15.911Z,21.50
2023-05-14T19:22:42.711Z,21.50
2023-05-14T19:25:11.135Z,21.50
2023-05-14T19:27:38.502Z,21.50
2023-05-14T19:30:06.229Z,21.50
2023-05-14T19:32:33.001Z,21.50
2023-05-14T19:34:59.727Z,21.50
2023-05-14T19:37:26.426Z,21.50
2023-05-14T19:39:53.232Z,21.50
2023-05-14T19:42:19.908Z,21.50
2023-05-14T19:44:46.710Z,21.50
2023-05-14T19:47:13.865Z,21.40
2023-05-14T19:49:40.762Z,21.40
2023-05-14T19:52:07.620Z,21.40
2023-05-14T19:54:34.420Z,21.40
2023-05-14T19:57:01.123Z,21.40
2023-05-14T19:59:29.612Z,21.40
2023-05-14T20:01:56.440Z,21.40
2023-05-14T20:04:23.334Z,21.30
2023-05-14T20:06:50.088Z,21.40
2023-05-14T20:09:16.769Z,21.30
2023-05-14T20:11:43.543Z,21.30
2023-05-14T20:14:10.294Z,21.30
2023-05-14T20:16:37.186Z,21.30
2023-05-14T20:19:04.827Z,21.30
2023-05-14T20:21:31.861Z,21.30
2023-05-14T20:23:58.691Z,21.30
2023-05-14T20:26:25.634Z,21.30
2023-05-14T20:28:53.565Z,21.30
2023-05-14T20:31:21.448Z,21.30
2023-05-14T20:33:48.936Z,21.30
2023-05-14T20:36:15.986Z,21.20
2023-05-14T20:38:42.791Z,21.30
2023-05-14T20:41:09.549Z,21.20
2023-05-14T20:43:36.369Z,21.20
2023-05-14T20:46:05.698Z,21.20
2023-05-14T20:48:32.535Z,21.20
2023-05-14T20:50:59.436Z,21.20
2023-05-14T20:53:28.253Z,21.20
2023-05-14T20:55:54.940Z,21.20
2023-05-14T20:58:21.702Z,21.10
2023-05-14T21:00:48.438Z,21.20
2023-05-14T21:03:15.429Z,21.20
2023-05-14T21:05:43.615Z,21.10
2023-05-14T21:08:10.880Z,21.10
2023-05-14T21:10:37.714Z,21.10
2023-05-14T21:13:04.450Z,21.10
2023-05-14T21:15:31.260Z,21.10
2023-05-14T21:17:58.101Z,21.10
2023-05-14T21:20:24.926Z,21.10
2023-05-14T21:22:51.644Z,21.10
2023-05-14T21:25:18.403Z,21.10
2023-05-14T21:27:45.268Z,21.00
2023-05-14T21:30:12.587Z,21.00
2023-05-14T21:32:39.358Z,21.00
2023-05-14T21:35:06.441Z,21.00
2023-05-14T21:37:33.300Z,21.00
2023-05-14T21:40:00.036Z,21.00
2023-05-14T21:42:26.756Z,21.00
2023-05-14T21:44:53.490Z,21.00
2023-05-14T21:47:21.044Z,21.00
2023-05-14T21:49:47.726Z,20.90
2023-05-14T21:52:14.477Z,21.00
2023-05-14T21:54:41.205Z,20.90
2023-05-14T21:57:07.869Z,20.90
2023-05-14T21:59:36.612Z,20.90
2023-05-14T22:02:07.331Z,20.90
2023-05-14T22:04:35.138Z,20.90
2023-05-14T22:07:02.124Z,20.90
2023-05-14T22:09:29.026Z,20.90
2023-05-14T22:11:56.683Z,20.90
2023-05-14T22:14:23.367Z,20.90
2023-05-14T22:16:50.193Z,20.90
2023-05-14T22:19:16.979Z,20.80
2023-05-14T22:21:43.825Z,20.80
2023-05-14T22:24:10.555Z,20.80
2023-05-14T22:26:37.320Z,20.80
2023-05-14T22:29:04.122Z,20.80
2023-05-14T22:31:30.857Z,20.80
2023-05-14T22:33:57.587Z,20.80
2023-05-14T22:36:24.358Z,20.80
2023-05-14T22:38:51.126Z,20.80
2023-05-14T22:41:17.906Z,20.80
2023-05-14T22:44:09.903Z,20.80
2023-05-14T22:46:36.809Z,20.80
2023-05-14T22:49:03.705Z,20.80
2023-05-14T22:51:30.509Z,20.70
2023-05-14T22:53:57.777Z,20.70
2023-05-14T22:56:24.899Z,20.70
2023-05-14T22:58:51.643Z,20.70
2023-05-14T23:01:18.334Z,20.70
2023-05-14T23:03:45.100Z,20.70
2023-05-14T23:06:14.309Z,20.70
2023-05-14T23:08:41.079Z,20.70
2023-05-14T23:11:07.773Z,20.70
2023-05-14T23:13:34.527Z,20.60
2023-05-14T23:16:01.523Z,20.70
2023-05-14T23:18:28.424Z,20.60
2023-05-14T23:20:55.215Z,20.70
2023-05-14T23:23:22.029Z,20.60
2023-05-14T23:25:50.191Z,20.60
2023-05-14T23:28:17.612Z,20.60
2023-05-14T23:30:45.006Z,20.60
2023-05-14T23:33:11.821Z,20.60
2023-05-14T23:35:39.131Z,20.60
2023-05-14T23:38:06.396Z,20.60
2023-05-14T23:40:33.667Z,20.60
2023-05-14T23:43:00.788Z,20.60
2023-05-14T23:45:28.372Z,20.50
2023-05-14T23:47:57.009Z,20.60
2023-05-14T23:50:24.152Z,20.50
2023-05-14T23:52:55.158Z,20.50
2023-05-14T23:55:22.524Z,20.50
2023-05-14T23:57:49.677Z,20.50
